Terminal Aerodrome Forecast
Issued by NWS

Current Version | Previous Version | Text Only | Print | Product List | Glossary Off
Versions: 1 2 3 4 5 6 7 8 9 10 11 12 13 14 15 16 17

000
FTUS41 KPBZ 181100 CCA
TAFMGW
TAF COR
KMGW 181140Z 1812/1912 29006KT P6SM BKN015
     FM181300 28006KT P6SM BKN025
     FM181700 28006KT P6SM OVC035=

USA.gov is the U.S. government's official web portal to all federal, state and local government web resources and services.